createdAt,value
2019-06-07T00:01:22.327Z,8.20
2019-06-07T00:03:53.162Z,6.00
2019-06-07T00:06:25.248Z,7.83
2019-06-07T00:08:54.278Z,5.33
2019-06-07T00:11:23.995Z,6.03
2019-06-07T00:13:55.351Z,6.30
2019-06-07T00:16:25.012Z,4.67
2019-06-07T00:18:54.664Z,7.37
2019-06-07T00:22:12.028Z,8.40
2019-06-07T00:23:55.735Z,7.33
2019-06-07T00:26:25.990Z,7.57
2019-06-07T00:28:55.757Z,5.17
2019-06-07T00:31:25.616Z,8.60
2019-06-07T00:33:56.326Z,6.60
2019-06-07T00:36:26.446Z,7.60
2019-06-07T00:38:56.333Z,7.33
2019-06-07T00:41:26.049Z,9.90
2019-06-07T00:43:55.699Z,7.20
2019-06-07T00:46:25.555Z,8.67
2019-06-07T00:48:55.277Z,8.83
2019-06-07T00:51:24.951Z,7.53
2019-06-07T00:53:54.748Z,7.30
2019-06-07T00:56:24.411Z,6.67
2019-06-07T00:59:10.707Z,7.07
2019-06-07T01:01:25.935Z,10.47
2019-06-07T01:03:55.847Z,9.83
2019-06-07T01:06:25.631Z,9.03
2019-06-07T01:08:55.295Z,6.93
2019-06-07T01:11:26.076Z,5.80
2019-06-07T01:13:55.984Z,8.60
2019-06-07T01:16:26.390Z,7.70
2019-06-07T01:18:56.252Z,7.70
2019-06-07T01:21:29.494Z,8.43
2019-06-07T01:24:11.371Z,8.03
2019-06-07T01:26:30.394Z,8.67
2019-06-07T01:28:59.946Z,7.50
2019-06-07T01:31:31.492Z,6.40
2019-06-07T01:34:01.044Z,10.50
2019-06-07T01:36:31.156Z,9.40
2019-06-07T01:39:01.011Z,6.73
2019-06-07T01:41:32.288Z,6.73
2019-06-07T01:44:02.005Z,8.60
2019-06-07T01:46:32.144Z,7.20
2019-06-07T01:49:02.037Z,9.63
2019-06-07T01:51:31.755Z,12.77
2019-06-07T01:54:48.499Z,12.70
2019-06-07T01:56:32.933Z,7.43
2019-06-07T01:59:02.652Z,9.13
2019-06-07T02:01:35.338Z,10.60
2019-06-07T02:04:04.223Z,7.93
2019-06-07T02:06:34.558Z,7.93
2019-06-07T02:09:06.392Z,7.50
2019-06-07T02:11:36.115Z,9.77
2019-06-07T02:14:06.195Z,8.37
2019-06-07T02:16:35.898Z,8.10
2019-06-07T02:19:05.609Z,7.90
2019-06-07T02:21:35.779Z,8.73
2019-06-07T02:24:05.603Z,8.60
2019-06-07T02:26:35.537Z,11.50
2019-06-07T02:29:05.529Z,11.30
2019-06-07T02:31:39.277Z,9.23
2019-06-07T02:34:06.662Z,13.10
2019-06-07T02:36:41.286Z,11.57
2019-06-07T02:39:09.337Z,9.47
2019-06-07T02:41:40.451Z,9.73
2019-06-07T02:44:10.362Z,10.97
2019-06-07T02:46:48.767Z,8.30
2019-06-07T02:49:12.819Z,10.73
2019-06-07T02:51:43.035Z,10.43
2019-06-07T02:54:12.763Z,12.43
2019-06-07T02:56:56.670Z,8.90
2019-06-07T02:59:14.219Z,10.03
2019-06-07T03:01:44.507Z,7.43
2019-06-07T03:04:15.310Z,8.83
2019-06-07T03:06:47.563Z,10.40
2019-06-07T03:09:18.715Z,6.87
2019-06-07T03:11:50.016Z,6.87
2019-06-07T03:14:22.279Z,9.03
2019-06-07T03:17:04.582Z,7.03
2019-06-07T03:19:39.524Z,6.37
2019-06-07T03:22:09.452Z,7.40
2019-06-07T03:24:42.264Z,7.53
2019-06-07T03:27:34.316Z,8.87
2019-06-07T03:29:42.335Z,8.63
2019-06-07T03:32:12.051Z,7.27
2019-06-07T03:34:43.867Z,10.23
2019-06-07T03:37:14.180Z,9.00
2019-06-07T03:39:43.823Z,9.17
2019-06-07T03:42:13.493Z,8.00
2019-06-07T03:44:43.143Z,7.83
2019-06-07T03:47:12.889Z,9.23
2019-06-07T03:49:42.886Z,7.40
2019-06-07T03:52:12.611Z,9.13
2019-06-07T03:54:43.527Z,9.90
2019-06-07T03:57:13.684Z,9.23
2019-06-07T03:59:43.464Z,10.63
2019-06-07T04:02:13.435Z,8.83
2019-06-07T04:04:43.087Z,10.77
2019-06-07T04:07:12.730Z,7.87
2019-06-07T04:09:43.430Z,6.63
2019-06-07T04:12:13.455Z,8.00
2019-06-07T04:14:43.157Z,6.63
2019-06-07T04:17:13.973Z,6.57
2019-06-07T04:19:43.967Z,7.17
2019-06-07T04:22:13.923Z,8.50
2019-06-07T04:24:43.575Z,9.10
2019-06-07T04:27:13.220Z,5.73
2019-06-07T04:30:05.690Z,7.60
2019-06-07T04:32:15.280Z,9.80
2019-06-07T04:34:45.039Z,9.40
2019-06-07T04:37:15.947Z,8.60
2019-06-07T04:39:46.072Z,9.33
2019-06-07T04:42:17.499Z,9.97
2019-06-07T04:44:48.493Z,8.77
2019-06-07T04:47:20.146Z,9.97
2019-06-07T04:49:51.332Z,7.67
2019-06-07T04:52:21.212Z,8.03
2019-06-07T04:54:50.931Z,10.73
2019-06-07T04:57:21.392Z,10.53
2019-06-07T05:00:12.063Z,12.07
2019-06-07T05:02:22.523Z,8.23
2019-06-07T05:04:52.598Z,7.60
2019-06-07T05:07:22.562Z,11.13
2019-06-07T05:09:52.203Z,9.17
2019-06-07T05:12:22.090Z,11.37
2019-06-07T05:14:51.733Z,6.50
2019-06-07T05:17:21.455Z,8.47
2019-06-07T05:19:51.102Z,6.23
2019-06-07T05:22:20.755Z,6.83
2019-06-07T05:24:50.450Z,6.47
2019-06-07T05:27:20.687Z,7.67
2019-06-07T05:30:08.801Z,6.07
2019-06-07T05:32:22.159Z,8.70
2019-06-07T05:34:51.900Z,5.40
2019-06-07T05:37:21.556Z,8.00
2019-06-07T05:39:51.590Z,6.80
2019-06-07T05:42:21.396Z,7.73
2019-06-07T05:44:51.325Z,3.90
2019-06-07T05:47:21.108Z,3.80
2019-06-07T05:49:50.949Z,5.10
2019-06-07T05:52:21.302Z,7.73
2019-06-07T05:54:50.943Z,4.53
2019-06-07T05:57:20.599Z,4.87
2019-06-07T05:59:50.247Z,6.73
2019-06-07T06:02:24.994Z,3.80
2019-06-07T06:04:51.646Z,6.53
2019-06-07T06:07:21.831Z,5.37
2019-06-07T06:09:51.466Z,3.63
2019-06-07T06:12:34.816Z,5.03
2019-06-07T06:14:52.521Z,4.03
2019-06-07T06:17:22.268Z,7.17
2019-06-07T06:19:53.471Z,2.80
2019-06-07T06:22:24.142Z,5.57
2019-06-07T06:25:29.753Z,5.60
2019-06-07T06:28:03.409Z,3.40
2019-06-07T06:29:57.320Z,3.63
2019-06-07T06:32:42.185Z,4.47
2019-06-07T06:34:58.722Z,2.73
2019-06-07T06:37:28.500Z,3.03
2019-06-07T06:39:58.429Z,3.30
2019-06-07T06:42:28.475Z,4.60
2019-06-07T06:44:58.316Z,4.10
2019-06-07T06:47:27.995Z,4.60
2019-06-07T06:49:57.731Z,3.43
2019-06-07T06:52:27.515Z,3.30
2019-06-07T06:55:00.706Z,4.80
2019-06-07T06:57:29.099Z,5.37
2019-06-07T06:59:58.935Z,4.30
2019-06-07T07:02:28.699Z,5.47
2019-06-07T07:04:58.771Z,3.90
2019-06-07T07:07:29.035Z,3.93
2019-06-07T07:10:00.234Z,3.60
2019-06-07T07:12:30.420Z,4.87
2019-06-07T07:15:00.211Z,3.87
2019-06-07T07:17:47.630Z,3.10
2019-06-07T07:20:02.690Z,3.60
2019-06-07T07:22:32.658Z,4.63
2019-06-07T07:25:02.311Z,4.00
2019-06-07T07:27:31.959Z,4.23
2019-06-07T07:30:36.169Z,5.63
2019-06-07T07:32:33.155Z,4.93
2019-06-07T07:35:02.816Z,2.73
2019-06-07T07:37:32.476Z,3.97
2019-06-07T07:40:54.740Z,3.87
2019-06-07T07:42:33.464Z,2.63
2019-06-07T07:45:03.118Z,5.17
2019-06-07T07:47:34.027Z,2.63
2019-06-07T07:50:04.245Z,2.97
2019-06-07T07:52:34.288Z,3.57
2019-06-07T07:55:04.244Z,2.60
2019-06-07T07:57:33.996Z,4.70
2019-06-07T08:00:48.110Z,3.40
2019-06-07T08:02:35.630Z,3.60
2019-06-07T08:05:21.090Z,4.20
2019-06-07T08:07:37.296Z,2.87
2019-06-07T08:10:07.196Z,3.67
2019-06-07T08:12:55.924Z,3.37
2019-06-07T08:15:08.945Z,4.17
2019-06-07T08:17:39.002Z,3.53
2019-06-07T08:20:09.122Z,2.87
2019-06-07T08:22:38.903Z,2.77
2019-06-07T08:25:09.405Z,4.50
2019-06-07T08:27:39.084Z,2.80
2019-06-07T08:30:46.580Z,3.30
2019-06-07T08:32:40.647Z,2.53
2019-06-07T08:35:11.524Z,2.93
2019-06-07T08:38:14.905Z,2.87
2019-06-07T08:40:13.023Z,3.97
2019-06-07T08:43:04.468Z,2.20
2019-06-07T08:45:16.229Z,3.77
2019-06-07T08:47:46.178Z,2.50
2019-06-07T08:50:16.596Z,3.93
2019-06-07T08:52:46.237Z,2.20
2019-06-07T08:55:16.362Z,2.83
2019-06-07T08:57:46.015Z,5.13
2019-06-07T09:00:43.339Z,2.57
2019-06-07T09:02:48.176Z,2.03
2019-06-07T09:05:18.280Z,3.17
2019-06-07T09:07:47.999Z,3.77
2019-06-07T09:10:18.196Z,4.33
2019-06-07T09:12:47.635Z,3.33
2019-06-07T09:15:23.142Z,1.60
2019-06-07T09:18:34.840Z,3.13
2019-06-07T09:20:36.434Z,3.03
2019-06-07T09:22:59.070Z,2.60
2019-06-07T09:25:25.411Z,3.10
2019-06-07T09:28:00.615Z,2.33
2019-06-07T09:30:41.294Z,2.33
2019-06-07T09:33:12.192Z,3.03
2019-06-07T09:35:43.120Z,4.03
2019-06-07T09:38:24.739Z,2.97
2019-06-07T09:40:44.635Z,1.70
2019-06-07T09:45:45.803Z,2.83
2019-06-07T09:48:34.490Z,3.60
2019-06-07T09:50:47.092Z,2.83
2019-06-07T09:53:22.338Z,3.33
2019-06-07T09:55:48.267Z,3.43
2019-06-07T09:58:50.155Z,2.03
2019-06-07T10:00:49.699Z,2.90
2019-06-07T10:03:22.394Z,3.30
2019-06-07T10:05:50.809Z,3.10
2019-06-07T10:09:26.169Z,1.93
2019-06-07T10:10:52.156Z,2.77
2019-06-07T10:13:22.264Z,2.23
2019-06-07T10:15:53.683Z,2.40
2019-06-07T10:18:23.269Z,2.70
2019-06-07T10:20:52.979Z,2.73
2019-06-07T10:23:22.673Z,2.90
2019-06-07T10:25:52.320Z,3.10
2019-06-07T10:28:22.327Z,3.50
2019-06-07T10:30:52.042Z,2.27
2019-06-07T10:33:21.892Z,2.80
2019-06-07T10:35:51.541Z,2.83
2019-06-07T10:38:21.514Z,3.37
2019-06-07T10:40:51.214Z,2.33
2019-06-07T10:43:21.847Z,2.23
2019-06-07T10:45:51.866Z,3.47
2019-06-07T10:48:24.986Z,2.40
2019-06-07T10:50:54.472Z,2.17
2019-06-07T10:53:24.521Z,3.43
2019-06-07T10:55:54.419Z,2.40
2019-06-07T10:58:24.168Z,5.07
2019-06-07T11:00:54.240Z,2.63
2019-06-07T11:03:23.897Z,3.03
2019-06-07T11:05:53.867Z,2.47
2019-06-07T11:08:23.622Z,3.10
2019-06-07T11:10:53.272Z,3.67
2019-06-07T11:13:23.007Z,3.77
2019-06-07T11:15:53.169Z,3.33
2019-06-07T11:18:22.948Z,3.17
2019-06-07T11:20:52.603Z,2.87
2019-06-07T11:23:22.283Z,3.97
2019-06-07T11:25:51.995Z,3.97
2019-06-07T11:28:22.024Z,3.67
2019-06-07T11:30:51.866Z,3.00
2019-06-07T11:33:22.052Z,2.57
2019-06-07T11:35:51.982Z,3.60
2019-06-07T11:38:22.103Z,4.60
2019-06-07T11:40:51.763Z,2.40
2019-06-07T11:43:22.003Z,4.20
2019-06-07T11:45:52.683Z,2.70
2019-06-07T11:48:22.351Z,3.10
2019-06-07T11:50:52.051Z,2.07
2019-06-07T11:53:22.076Z,2.80
2019-06-07T11:55:51.824Z,2.67
2019-06-07T11:58:22.050Z,2.10
2019-06-07T12:00:51.916Z,2.57
2019-06-07T12:03:22.673Z,3.33
2019-06-07T12:05:52.372Z,2.30
2019-06-07T12:08:22.336Z,3.37
2019-06-07T12:10:52.220Z,2.00
2019-06-07T12:13:22.043Z,2.80
2019-06-07T12:15:51.868Z,3.07
2019-06-07T12:18:21.602Z,3.30
2019-06-07T12:20:51.396Z,4.17
2019-06-07T12:23:21.288Z,2.97
2019-06-07T12:25:51.011Z,2.80
2019-06-07T12:28:21.025Z,2.40
2019-06-07T12:30:51.155Z,3.27
2019-06-07T12:33:21.707Z,1.97
2019-06-07T12:35:51.472Z,3.40
2019-06-07T12:38:22.962Z,3.40
2019-06-07T12:40:57.670Z,1.90
2019-06-07T12:43:23.905Z,5.37
2019-06-07T12:45:53.552Z,3.40
2019-06-07T12:48:25.901Z,2.00
2019-06-07T12:50:54.938Z,4.00
2019-06-07T12:53:27.912Z,8.60
2019-06-07T12:55:59.889Z,2.13
2019-06-07T12:58:34.513Z,2.60
2019-06-07T13:00:59.904Z,2.60
2019-06-07T13:03:29.884Z,7.90
2019-06-07T13:05:59.565Z,4.20
2019-06-07T13:08:29.524Z,2.60
2019-06-07T13:11:13.924Z,2.20
2019-06-07T13:13:30.651Z,3.37
2019-06-07T13:16:00.596Z,2.93
2019-06-07T13:18:30.675Z,2.17
2019-06-07T13:21:00.322Z,2.83
2019-06-07T13:23:30.943Z,2.30
2019-06-07T13:26:00.964Z,1.77
2019-06-07T13:28:31.592Z,3.17
2019-06-07T13:31:02.692Z,2.43
2019-06-07T13:33:38.089Z,3.12
2019-06-07T13:36:03.912Z,1.97
2019-06-07T13:38:33.631Z,2.73
2019-06-07T13:41:03.568Z,1.73
2019-06-07T13:43:33.308Z,2.17
2019-06-07T13:46:02.947Z,3.33
2019-06-07T13:48:32.684Z,2.83
2019-06-07T13:51:02.400Z,2.87
2019-06-07T13:53:32.043Z,2.83
2019-06-07T13:56:02.100Z,4.83
2019-06-07T13:58:31.755Z,3.10
2019-06-07T14:01:01.401Z,3.23
2019-06-07T14:03:33.843Z,3.37
2019-06-07T14:06:02.575Z,2.57
2019-06-07T14:08:32.247Z,2.93
2019-06-07T14:11:01.918Z,3.77
2019-06-07T14:13:31.638Z,3.60
2019-06-07T14:16:01.283Z,3.00
2019-06-07T14:18:30.939Z,1.80
2019-06-07T14:21:00.586Z,3.67
2019-06-07T14:23:45.884Z,4.20
2019-06-07T14:26:01.706Z,2.53
2019-06-07T14:28:34.054Z,4.03
2019-06-07T14:31:02.761Z,2.83
2019-06-07T14:33:33.839Z,1.93
2019-06-07T14:36:03.745Z,3.00
2019-06-07T14:38:37.245Z,2.23
2019-06-07T14:41:05.011Z,2.63
2019-06-07T14:43:34.927Z,2.73
2019-06-07T14:46:05.139Z,1.73
2019-06-07T14:48:34.809Z,2.27
2019-06-07T14:51:04.852Z,2.07
2019-06-07T14:53:35.475Z,1.83
2019-06-07T14:56:05.295Z,4.13
2019-06-07T14:58:39.969Z,2.13
2019-06-07T15:01:06.399Z,2.17
2019-06-07T15:03:36.687Z,2.70
2019-06-07T15:06:06.391Z,2.50
2019-06-07T15:08:36.076Z,1.90
2019-06-07T15:11:05.760Z,1.87
2019-06-07T15:13:35.833Z,2.77
2019-06-07T15:16:05.559Z,1.97
2019-06-07T15:18:36.240Z,1.83
2019-06-07T15:21:06.011Z,1.60
2019-06-07T15:23:35.663Z,1.60
2019-06-07T15:26:05.315Z,2.93
2019-06-07T15:28:36.727Z,2.60
2019-06-07T15:31:06.542Z,2.13
2019-06-07T15:33:36.594Z,2.03
2019-06-07T15:36:07.548Z,2.97
2019-06-07T15:38:37.319Z,2.30
2019-06-07T15:41:07.030Z,2.83
2019-06-07T15:43:37.400Z,3.40
2019-06-07T15:46:07.236Z,2.30
2019-06-07T15:48:38.290Z,2.70
2019-06-07T15:51:08.181Z,2.17
2019-06-07T15:53:42.422Z,2.17
2019-06-07T15:56:10.506Z,2.10
2019-06-07T15:58:41.372Z,2.47
2019-06-07T16:01:11.149Z,2.70
2019-06-07T16:03:42.118Z,2.63
2019-06-07T16:06:12.196Z,2.77
2019-06-07T16:08:42.598Z,3.43
2019-06-07T16:11:12.679Z,4.00
2019-06-07T16:13:42.878Z,2.70
2019-06-07T16:16:12.684Z,3.60
2019-06-07T16:18:44.148Z,2.60
2019-06-07T16:21:13.783Z,2.47
2019-06-07T16:23:44.122Z,2.67
2019-06-07T16:26:14.291Z,2.70
2019-06-07T16:28:44.646Z,2.40
2019-06-07T16:31:14.808Z,2.43
2019-06-07T16:33:45.189Z,2.23
2019-06-07T16:36:15.052Z,2.70
2019-06-07T16:38:44.687Z,2.93
2019-06-07T16:41:14.431Z,2.13
2019-06-07T16:43:45.134Z,2.57
2019-06-07T16:46:14.800Z,2.60
2019-06-07T16:48:45.146Z,1.90
2019-06-07T16:51:14.943Z,2.63
2019-06-07T16:53:44.697Z,2.47
2019-06-07T16:56:14.410Z,2.33
2019-06-07T16:58:44.501Z,2.00
2019-06-07T17:01:14.648Z,3.60
2019-06-07T17:03:45.581Z,1.80
2019-06-07T17:06:15.527Z,2.80
2019-06-07T17:08:46.265Z,1.87
2019-06-07T17:11:17.021Z,2.70
2019-06-07T17:13:46.768Z,3.07
2019-06-07T17:16:16.803Z,3.87
2019-06-07T17:18:47.129Z,2.90
2019-06-07T17:21:17.280Z,6.77
2019-06-07T17:23:47.502Z,3.60
2019-06-07T17:26:17.396Z,2.70
2019-06-07T17:28:47.768Z,2.73
2019-06-07T17:31:17.470Z,4.50
2019-06-07T17:33:48.124Z,2.70
2019-06-07T17:36:17.822Z,2.93
2019-06-07T17:38:48.619Z,5.30
2019-06-07T17:41:18.832Z,3.27
2019-06-07T17:43:57.778Z,3.97
2019-06-07T17:46:20.140Z,5.60
2019-06-07T17:48:51.726Z,3.87
2019-06-07T17:51:21.779Z,4.37
2019-06-07T17:53:52.076Z,3.47
2019-06-07T17:56:22.822Z,3.50
2019-06-07T17:58:52.546Z,3.73
2019-06-07T18:01:22.619Z,6.53
2019-06-07T18:03:53.194Z,5.07
2019-06-07T18:06:24.530Z,3.93
2019-06-07T18:08:55.553Z,3.90
2019-06-07T18:11:25.960Z,4.53
2019-06-07T18:14:09.414Z,3.07
2019-06-07T18:16:27.727Z,2.87
2019-06-07T18:18:57.569Z,4.33
2019-06-07T18:21:27.310Z,3.83
2019-06-07T18:23:57.196Z,3.57
2019-06-07T18:26:26.999Z,3.20
2019-06-07T18:28:56.663Z,4.17
2019-06-07T18:31:26.379Z,4.03
2019-06-07T18:33:56.378Z,4.97
2019-06-07T18:36:26.022Z,3.20
2019-06-07T18:38:55.751Z,5.30
2019-06-07T18:41:25.735Z,4.00
2019-06-07T18:43:55.458Z,5.20
2019-06-07T18:46:25.288Z,5.17
2019-06-07T18:48:55.795Z,3.27
2019-06-07T18:51:25.446Z,3.63
2019-06-07T18:53:55.772Z,4.47
2019-06-07T18:56:25.459Z,3.30
2019-06-07T18:58:55.337Z,3.30
2019-06-07T19:01:25.157Z,3.40
2019-06-07T19:03:56.079Z,3.90
2019-06-07T19:06:25.936Z,4.53
2019-06-07T19:08:58.110Z,4.73
2019-06-07T19:11:27.224Z,3.83
2019-06-07T19:13:57.195Z,3.80
2019-06-07T19:16:26.846Z,5.63
2019-06-07T19:18:57.787Z,5.47
2019-06-07T19:21:27.795Z,4.53
2019-06-07T19:23:58.055Z,5.03
2019-06-07T19:26:28.898Z,4.33
2019-06-07T19:28:58.891Z,5.30
2019-06-07T19:31:28.652Z,5.97
2019-06-07T19:33:59.418Z,4.50
2019-06-07T19:36:29.208Z,5.57
2019-06-07T19:39:00.002Z,5.60
2019-06-07T19:41:30.180Z,5.90
2019-06-07T19:44:00.395Z,5.53
2019-06-07T19:46:30.834Z,5.40
2019-06-07T19:49:00.822Z,8.03
2019-06-07T19:51:30.715Z,6.33
2019-06-07T19:54:01.759Z,5.63
2019-06-07T19:56:32.012Z,8.87
2019-06-07T19:59:01.854Z,5.20
2019-06-07T20:01:32.800Z,6.70
2019-06-07T20:04:02.703Z,7.13
2019-06-07T20:06:33.678Z,7.40
2019-06-07T20:09:05.007Z,9.67
2019-06-07T20:11:35.031Z,8.40
2019-06-07T20:14:05.042Z,7.50
2019-06-07T20:16:35.296Z,9.07
2019-06-07T20:19:06.217Z,7.90
2019-06-07T20:21:35.991Z,7.70
2019-06-07T20:24:22.505Z,9.77
2019-06-07T20:26:37.136Z,8.97
2019-06-07T20:29:14.560Z,9.67
2019-06-07T20:31:38.504Z,8.17
2019-06-07T20:34:09.065Z,8.13
2019-06-07T20:36:38.847Z,8.83
2019-06-07T20:39:08.488Z,9.90
2019-06-07T20:41:38.153Z,7.87
2019-06-07T20:44:08.128Z,7.70
2019-06-07T20:46:37.916Z,8.77
2019-06-07T20:49:08.439Z,9.13
2019-06-07T20:51:38.159Z,8.93
2019-06-07T20:54:09.046Z,8.40
2019-06-07T20:56:38.982Z,10.47
2019-06-07T20:59:08.921Z,10.10
2019-06-07T21:01:42.507Z,9.07
2019-06-07T21:04:10.312Z,7.90
2019-06-07T21:06:40.319Z,8.37
2019-06-07T21:09:10.337Z,9.03
2019-06-07T21:11:40.236Z,8.23
2019-06-07T21:14:10.271Z,10.87
2019-06-07T21:16:40.067Z,8.07
2019-06-07T21:19:10.435Z,9.67
2019-06-07T21:21:40.362Z,12.53
2019-06-07T21:24:10.914Z,12.13
2019-06-07T21:26:40.747Z,10.97
2019-06-07T21:29:12.001Z,15.37
2019-06-07T21:31:41.934Z,12.40
2019-06-07T21:34:14.008Z,10.37
2019-06-07T21:36:43.021Z,11.63
2019-06-07T21:39:12.661Z,10.83
2019-06-07T21:41:42.319Z,9.80
2019-06-07T21:44:12.443Z,10.20
2019-06-07T21:46:42.215Z,10.23
2019-06-07T21:49:12.968Z,10.93
2019-06-07T21:51:42.701Z,11.07
2019-06-07T21:54:14.753Z,12.20
2019-06-07T21:56:43.939Z,13.77
2019-06-07T21:59:13.629Z,13.40
2019-06-07T22:01:43.440Z,14.73
2019-06-07T22:04:13.733Z,15.90
2019-06-07T22:06:43.931Z,18.43
2019-06-07T22:09:14.682Z,17.30
2019-06-07T22:11:44.507Z,24.17
2019-06-07T22:14:14.616Z,24.27
2019-06-07T22:16:44.279Z,23.40
2019-06-07T22:19:14.908Z,25.17
2019-06-07T22:21:44.728Z,23.70
2019-06-07T22:24:15.103Z,23.27
2019-06-07T22:26:44.921Z,20.90
2019-06-07T22:29:14.595Z,21.47
2019-06-07T22:31:44.453Z,21.50
2019-06-07T22:34:15.081Z,17.67
2019-06-07T22:36:45.161Z,15.73
2019-06-07T22:39:15.814Z,13.47
2019-06-07T22:41:45.592Z,11.40
2019-06-07T22:44:15.247Z,13.00
2019-06-07T22:46:46.168Z,13.90
2019-06-07T22:49:15.812Z,11.20
2019-06-07T22:51:45.458Z,10.10
2019-06-07T22:54:16.099Z,11.77
2019-06-07T22:56:54.014Z,11.80
2019-06-07T22:59:23.667Z,13.17
2019-06-07T23:01:54.279Z,13.93
2019-06-07T23:04:23.932Z,14.10
2019-06-07T23:06:53.583Z,11.97
2019-06-07T23:09:23.230Z,12.30
2019-06-07T23:11:52.966Z,12.73
2019-06-07T23:14:25.590Z,11.17
2019-06-07T23:16:55.718Z,11.40
2019-06-07T23:19:25.724Z,9.83
2019-06-07T23:21:55.669Z,11.37
2019-06-07T23:24:25.533Z,10.13
2019-06-07T23:26:55.239Z,10.17
2019-06-07T23:29:24.973Z,11.33
2019-06-07T23:31:54.624Z,10.30
2019-06-07T23:34:24.326Z,10.10
2019-06-07T23:36:54.319Z,9.70
2019-06-07T23:39:23.972Z,10.10
2019-06-07T23:41:53.925Z,9.27
2019-06-07T23:44:23.606Z,9.00
2019-06-07T23:46:53.423Z,11.17
2019-06-07T23:49:23.330Z,13.33
2019-06-07T23:51:54.119Z,10.10
2019-06-07T23:54:23.900Z,11.73
2019-06-07T23:56:53.671Z,12.63
2019-06-07T23:59:23.583Z,12.10
